Delafield, Wisconsin
Current Conditions -  °F | °C
As of 9:45 AM on Sunday 23 Nov 2014 (Local Time) from KUES Reporting Station
Light Rain Light Rain  
Wind Chill: 41°   Ceiling: 1600
Heat Index: 46°   Visibility: 5mi
Dew Point: 46°   Wind: 12mph
Humidity: 100%   Direction: 180°S
Pressure: 29.67"   Gusts: NA
Location:  43.06°N, 88.4°W
Report Text: KUES 231545Z 18010KT 5SM -RA BR OVC016 08/08 A2967
Loading
Personal Weather Stations






























Interactive Weather Map New forecast layout! Learn more

10-Day Weather Forecast

Advertisements
Track Severe Weather on mobile